Time;durP1;ratioP1;P1;durP2;ratioP2;P2;SDS_P1;SDS_P2;PMS_P1;PMS_P2;Temp;Humidity;BMP_temperature;BMP_pressure;BME280_temperature;BME280_humidity;BME280_pressure;Samples;Min_cycle;Max_cycle;Signal;HPM_P1;HPM_P2
2020/12/16 00:00:58;;;;;;;1.70;1.60;;;21.00;55.00;;;;;;5228660;28;20057;-82
2020/12/16 00:03:28;;;;;;;1.85;1.75;;;21.10;55.10;;;;;;5212198;28;20071;-81
2020/12/16 00:05:59;;;;;;;5.70;1.90;;;21.10;55.00;;;;;;5209849;28;20029;-77
2020/12/16 00:08:29;;;;;;;7.18;1.70;;;21.10;55.40;;;;;;5222296;28;20037;-77
2020/12/16 00:11:00;;;;;;;4.70;1.80;;;21.10;54.80;;;;;;5230246;28;20375;-78
2020/12/16 00:13:30;;;;;;;1.63;1.52;;;21.10;55.30;;;;;;5215204;28;20051;-78
2020/12/16 00:16:01;;;;;;;1.88;1.73;;;21.10;54.70;;;;;;5218712;28;20029;-78
2020/12/16 00:18:31;;;;;;;3.42;1.67;;;21.10;55.70;;;;;;5216702;28;20101;-77
2020/12/16 00:21:02;;;;;;;7.30;1.90;;;21.20;55.80;;;;;;5212650;28;20029;-77
2020/12/16 00:23:33;;;;;;;5.85;1.92;;;21.20;55.80;;;;;;5214901;28;20085;-77
2020/12/16 00:26:03;;;;;;;3.33;1.88;;;21.30;55.40;;;;;;5228680;28;20452;-79
2020/12/16 00:28:34;;;;;;;1.92;1.60;;;21.30;55.10;;;;;;5209513;28;20033;-78
2020/12/16 00:31:04;;;;;;;2.15;1.88;;;21.30;54.90;;;;;;5207107;28;20452;-78
2020/12/16 00:33:35;;;;;;;3.25;1.70;;;21.30;54.80;;;;;;5236706;28;20049;-79
2020/12/16 00:36:05;;;;;;;2.88;2.03;;;21.30;54.80;;;;;;5194588;28;20033;-79
2020/12/16 00:38:36;;;;;;;2.13;1.80;;;21.30;54.80;;;;;;5216632;28;20094;-79
2020/12/16 00:41:07;;;;;;;3.33;1.90;;;21.40;54.80;;;;;;5206117;28;20496;-79
2020/12/16 00:43:37;;;;;;;1.70;1.60;;;21.30;54.80;;;;;;5227784;28;20017;-79
2020/12/16 00:46:08;;;;;;;4.07;1.70;;;21.30;54.70;;;;;;5227183;28;20037;-79
2020/12/16 00:48:38;;;;;;;3.72;1.80;;;21.30;54.70;;;;;;5192549;28;20032;-79
2020/12/16 00:51:08;;;;;;;2.58;1.67;;;21.30;54.70;;;;;;5209985;28;20033;-79
2020/12/16 00:53:39;;;;;;;2.22;1.85;;;21.30;54.90;;;;;;5211633;28;20025;-82
2020/12/16 00:56:09;;;;;;;4.75;1.75;;;21.30;54.90;;;;;;5242787;28;20113;-79
2020/12/16 00:58:40;;;;;;;2.20;1.90;;;21.40;55.10;;;;;;5233906;28;20088;-79
2020/12/16 01:01:10;;;;;;;1.85;1.63;;;21.40;55.10;;;;;;5200942;28;20151;-79
2020/12/16 01:03:41;;;;;;;2.30;1.70;;;21.40;54.70;;;;;;5214622;28;20087;-79
2020/12/16 01:06:12;;;;;;;3.30;1.70;;;21.40;54.60;;;;;;5195322;28;20029;-79
2020/12/16 01:08:42;;;;;;;3.25;1.90;;;21.40;54.70;;;;;;5246675;28;20112;-79
2020/12/16 01:11:13;;;;;;;1.85;1.75;;;21.40;54.80;;;;;;5230822;28;20398;-79
2020/12/16 01:13:43;;;;;;;3.25;1.90;;;21.40;54.60;;;;;;5234428;28;20092;-77
2020/12/16 01:16:14;;;;;;;4.45;2.78;;;21.40;55.00;;;;;;5193091;28;20040;-78
2020/12/16 01:18:44;;;;;;;3.00;2.70;;;21.40;54.90;;;;;;5226725;28;20495;-78
2020/12/16 01:21:15;;;;;;;3.85;2.75;;;21.40;55.00;;;;;;5226447;28;20029;-79
2020/12/16 01:23:45;;;;;;;3.42;2.88;;;21.30;54.90;;;;;;5194701;28;20036;-78
2020/12/16 01:26:16;;;;;;;3.53;3.00;;;21.30;55.00;;;;;;5227426;28;20033;-79
2020/12/16 01:28:47;;;;;;;3.80;2.83;;;21.30;54.90;;;;;;5210677;28;20029;-78
2020/12/16 01:31:17;;;;;;;4.45;3.20;;;21.30;55.00;;;;;;5225576;28;20067;-78
2020/12/16 01:33:48;;;;;;;7.18;3.22;;;21.30;55.00;;;;;;5211088;28;20513;-78
2020/12/16 01:36:18;;;;;;;4.53;3.17;;;21.30;54.90;;;;;;5210466;28;20037;-79
2020/12/16 01:38:49;;;;;;;3.83;3.20;;;21.30;54.80;;;;;;5193562;28;20033;-78
2020/12/16 01:41:19;;;;;;;4.13;3.13;;;21.30;54.70;;;;;;5193225;28;20060;-78
2020/12/16 01:43:50;;;;;;;5.03;3.20;;;21.30;54.80;;;;;;5210443;28;20114;-78
2020/12/16 01:46:23;;;;;;;3.70;3.33;;;21.30;54.80;;;;;;5193120;28;20029;-79
2020/12/16 01:48:53;;;;;;;3.83;3.30;;;21.30;54.80;;;;;;5210211;28;20053;-78
2020/12/16 01:51:24;;;;;;;3.45;3.00;;;21.30;54.60;;;;;;5209294;28;20495;-77
2020/12/16 01:53:54;;;;;;;4.85;4.20;;;21.30;54.60;;;;;;5213725;28;20044;-78
2020/12/16 01:56:25;;;;;;;4.65;3.30;;;21.30;54.60;;;;;;5227492;28;20407;-79
2020/12/16 01:58:55;;;;;;;4.82;4.32;;;21.20;54.60;;;;;;5201541;28;20028;-79
2020/12/16 02:01:26;;;;;;;5.93;4.15;;;21.10;54.60;;;;;;5216383;28;20041;-79
2020/12/16 02:03:56;;;;;;;4.43;3.00;;;21.10;54.70;;;;;;5208856;28;20021;-78
2020/12/16 02:06:26;;;;;;;4.95;3.63;;;21.10;54.50;;;;;;5219478;28;20026;-78
2020/12/16 02:09:05;;;;;;;4.15;3.50;;;21.20;54.30;;;;;;5204267;28;20044;-78
2020/12/16 02:11:36;;;;;;;3.53;3.22;;;21.20;54.10;;;;;;5219715;28;20040;-78
2020/12/16 02:14:08;;;;;;;4.47;3.53;;;21.10;54.20;;;;;;5188038;28;20028;-80
2020/12/16 02:16:38;;;;;;;3.95;3.15;;;21.10;54.30;;;;;;5203501;28;20037;-79
2020/12/16 02:19:09;;;;;;;4.47;3.70;;;21.20;54.30;;;;;;5204293;28;20400;-78
2020/12/16 02:21:40;;;;;;;5.03;3.30;;;21.10;54.40;;;;;;5187375;28;20036;-78
2020/12/16 02:24:10;;;;;;;4.50;3.30;;;21.10;54.40;;;;;;5204541;28;20499;-78
2020/12/16 02:26:41;;;;;;;5.03;3.67;;;21.20;54.50;;;;;;5204027;28;20129;-80
2020/12/16 02:29:12;;;;;;;3.47;3.17;;;21.20;54.50;;;;;;5188321;28;20385;-78
2020/12/16 02:31:43;;;;;;;4.78;3.53;;;21.20;54.50;;;;;;5202718;28;20029;-78
2020/12/16 02:34:13;;;;;;;4.38;3.50;;;21.10;54.60;;;;;;5218220;28;20052;-79
2020/12/16 02:36:44;;;;;;;6.80;3.30;;;21.20;55.40;;;;;;5224752;28;20075;-78
2020/12/16 02:39:14;;;;;;;3.50;3.00;;;21.20;54.60;;;;;;5226982;28;20040;-78
2020/12/16 02:41:45;;;;;;;3.97;3.22;;;21.20;54.50;;;;;;5207547;28;20032;-77
2020/12/16 02:44:15;;;;;;;4.72;2.97;;;21.20;54.60;;;;;;5208241;28;20040;-78
2020/12/16 02:46:46;;;;;;;4.28;3.30;;;21.20;54.70;;;;;;5207099;28;20052;-78
2020/12/16 02:49:16;;;;;;;4.97;3.13;;;21.20;54.90;;;;;;5225053;28;20027;-79
2020/12/16 02:51:47;;;;;;;4.35;3.08;;;21.20;54.80;;;;;;5191898;28;20025;-80
2020/12/16 02:54:17;;;;;;;6.90;3.40;;;21.20;54.90;;;;;;5190037;28;20029;-79
2020/12/16 02:56:51;;;;;;;6.25;3.53;;;21.20;54.90;;;;;;5214648;28;20441;-78
2020/12/16 02:59:26;;;;;;;4.20;3.75;;;21.20;54.90;;;;;;5200838;28;20041;-78
2020/12/16 03:01:57;;;;;;;5.35;3.40;;;21.20;54.80;;;;;;5211373;28;20024;-77
2020/12/16 03:04:28;;;;;;;9.30;3.58;;;21.20;54.90;;;;;;5239885;28;20415;-77
2020/12/16 03:06:58;;;;;;;5.03;3.42;;;21.20;54.90;;;;;;5223933;28;20037;-78
2020/12/16 03:09:29;;;;;;;4.32;3.30;;;21.20;54.90;;;;;;5209430;28;20055;-78
2020/12/16 03:11:59;;;;;;;5.80;3.25;;;21.20;54.80;;;;;;5204363;28;20531;-78
2020/12/16 03:14:30;;;;;;;4.10;3.20;;;21.20;54.90;;;;;;5221749;28;20036;-78
2020/12/16 03:17:00;;;;;;;6.15;3.10;;;21.10;54.90;;;;;;5226943;28;20517;-78
2020/12/16 03:19:31;;;;;;;6.80;3.38;;;21.20;54.90;;;;;;5208030;28;20475;-78
2020/12/16 03:22:01;;;;;;;3.85;3.45;;;21.20;54.90;;;;;;5231783;28;20188;-77
2020/12/16 03:24:32;;;;;;;4.18;3.58;;;21.20;54.90;;;;;;5234742;28;20400;-78
2020/12/16 03:27:02;;;;;;;6.75;3.40;;;21.20;54.80;;;;;;5218271;28;20068;-79
2020/12/16 03:29:33;;;;;;;4.80;3.33;;;21.20;54.90;;;;;;5223969;28;20076;-76
2020/12/16 03:32:03;;;;;;;4.20;3.30;;;21.20;54.90;;;;;;5193477;28;20400;-78
2020/12/16 03:34:34;;;;;;;5.32;3.42;;;21.20;55.60;;;;;;5206686;28;20037;-77
2020/12/16 03:37:04;;;;;;;4.63;3.13;;;21.20;55.00;;;;;;5213660;28;20091;-78
2020/12/16 03:39:35;;;;;;;3.83;3.17;;;21.20;55.10;;;;;;5231692;28;20525;-78
2020/12/16 03:42:05;;;;;;;3.75;3.25;;;21.20;55.20;;;;;;5208815;28;20126;-81
2020/12/16 03:44:36;;;;;;;5.15;3.50;;;21.20;55.30;;;;;;5230409;28;20037;-78
2020/12/16 03:47:07;;;;;;;4.65;3.40;;;21.20;55.20;;;;;;5236446;28;20041;-79
2020/12/16 03:49:37;;;;;;;4.38;3.20;;;21.20;55.10;;;;;;5239229;28;20038;-78
2020/12/16 03:52:08;;;;;;;5.13;3.40;;;21.20;55.10;;;;;;5189665;28;20104;-78
2020/12/16 03:54:38;;;;;;;4.65;3.42;;;21.20;55.10;;;;;;5210638;28;20029;-78
2020/12/16 03:57:08;;;;;;;4.40;3.70;;;21.20;55.00;;;;;;5230900;28;20035;-79
2020/12/16 03:59:39;;;;;;;4.97;3.67;;;21.30;55.10;;;;;;5229586;28;20027;-77
2020/12/16 04:02:10;;;;;;;4.85;3.40;;;21.20;55.10;;;;;;5199750;28;20041;-78
2020/12/16 04:04:40;;;;;;;4.63;3.30;;;21.20;55.20;;;;;;5207095;28;20502;-78
2020/12/16 04:07:11;;;;;;;6.50;3.10;;;21.20;55.70;;;;;;5223720;28;20033;-78
2020/12/16 04:09:41;;;;;;;7.57;3.30;;;21.20;55.40;;;;;;5210253;28;20479;-78
2020/12/16 04:12:12;;;;;;;3.67;3.10;;;21.20;55.20;;;;;;5210118;28;20033;-78
2020/12/16 04:14:42;;;;;;;3.78;2.83;;;21.20;55.40;;;;;;5221395;28;20505;-78
2020/12/16 04:17:13;;;;;;;5.75;3.80;;;21.10;55.00;;;;;;5227895;28;20032;-78
2020/12/16 04:19:43;;;;;;;3.78;3.10;;;21.10;55.20;;;;;;5247380;28;20070;-77
2020/12/16 04:22:14;;;;;;;6.00;3.60;;;21.10;55.00;;;;;;5206028;28;20041;-77
2020/12/16 04:24:44;;;;;;;4.43;3.28;;;21.10;55.00;;;;;;5222841;28;20037;-79
2020/12/16 04:27:16;;;;;;;4.55;2.97;;;21.10;54.90;;;;;;5242571;28;20490;-78
2020/12/16 04:29:46;;;;;;;3.28;2.83;;;21.10;55.00;;;;;;5215024;28;20056;-77
2020/12/16 04:32:17;;;;;;;3.80;2.97;;;21.10;55.00;;;;;;5242677;28;20490;-78
2020/12/16 04:34:47;;;;;;;5.32;2.90;;;21.10;54.80;;;;;;5219976;28;20115;-79
2020/12/16 04:37:18;;;;;;;5.13;3.40;;;21.10;55.10;;;;;;5223456;28;20346;-78
2020/12/16 04:39:48;;;;;;;3.42;3.08;;;21.10;54.80;;;;;;5188553;28;20026;-78
2020/12/16 04:42:19;;;;;;;3.95;3.33;;;21.10;54.90;;;;;;5232513;28;20446;-78
2020/12/16 04:44:49;;;;;;;5.95;3.20;;;21.00;54.60;;;;;;5235562;28;20028;-78
2020/12/16 04:47:20;;;;;;;4.57;2.90;;;21.00;54.70;;;;;;5189367;28;20038;-77
2020/12/16 04:49:51;;;;;;;3.17;2.88;;;21.00;54.80;;;;;;5204799;28;20500;-78
2020/12/16 04:52:21;;;;;;;5.60;3.35;;;21.00;54.80;;;;;;5217690;28;20029;-78
2020/12/16 04:54:52;;;;;;;3.83;3.17;;;21.00;54.80;;;;;;5221326;28;20546;-77
2020/12/16 04:57:22;;;;;;;5.75;3.20;;;21.00;55.10;;;;;;5222551;28;20083;-78
2020/12/16 04:59:55;;;;;;;3.75;2.67;;;21.00;55.10;;;;;;5194413;28;20452;-78
2020/12/16 05:02:25;;;;;;;3.80;2.78;;;21.00;54.70;;;;;;5231344;28;20033;-78
2020/12/16 05:04:56;;;;;;;5.35;3.00;;;21.00;54.60;;;;;;5227229;28;20032;-78
2020/12/16 05:07:29;;;;;;;17.00;3.53;;;21.00;55.30;;;;;;5209725;28;20032;-78
2020/12/16 05:10:00;;;;;;;5.30;2.83;;;21.20;55.60;;;;;;5216524;28;20793;-81
2020/12/16 05:12:30;;;;;;;7.80;4.88;;;21.20;55.10;;;;;;5243798;28;20040;-79
2020/12/16 05:15:01;;;;;;;11.07;3.63;;;21.10;54.80;;;;;;5231999;28;20062;-78
2020/12/16 05:17:34;;;;;;;9.23;3.58;;;21.10;55.50;;;;;;5204803;28;20103;-79
2020/12/16 05:20:07;;;;;;;7.72;2.88;;;21.10;55.90;;;;;;5249234;22;20041;-78
2020/12/16 05:22:37;;;;;;;4.57;3.10;;;21.10;56.00;;;;;;5220931;28;20108;-78
2020/12/16 05:25:07;;;;;;;6.55;3.08;;;21.00;55.90;;;;;;5235762;28;20047;-77
2020/12/16 05:27:41;;;;;;;5.93;2.85;;;21.10;55.80;;;;;;5225816;28;20388;-80
2020/12/16 05:30:12;;;;;;;5.63;2.90;;;21.10;55.90;;;;;;5225252;28;20017;-78
2020/12/16 05:32:42;;;;;;;6.38;3.05;;;21.10;55.80;;;;;;5208449;28;20040;-79
2020/12/16 05:35:20;;;;;;;8.57;2.90;;;21.10;55.90;;;;;;5208205;28;20040;-78
2020/12/16 05:37:50;;;;;;;4.65;2.95;;;21.10;55.90;;;;;;5224953;28;20025;-77
2020/12/16 05:40:21;;;;;;;7.60;3.30;;;21.10;56.00;;;;;;5223933;28;20026;-78
2020/12/16 05:42:51;;;;;;;4.30;2.80;;;21.10;56.20;;;;;;5208093;28;20067;-77
2020/12/16 05:45:24;;;;;;;4.30;2.80;;;21.10;56.20;;;;;;5208133;28;20067;-78
2020/12/16 05:48:01;;;;;;;3.88;3.10;;;21.00;56.20;;;;;;5220742;28;20126;-78
2020/12/16 05:50:44;;;;;;;5.88;3.05;;;21.10;56.20;;;;;;5188394;28;20029;-77
2020/12/16 05:53:22;;;;;;;3.42;3.00;;;21.00;56.20;;;;;;5214155;28;20131;-78
2020/12/16 05:55:57;;;;;;;5.35;3.25;;;21.00;56.20;;;;;;5208438;28;20551;-78
2020/12/16 05:58:28;;;;;;;4.00;2.90;;;21.10;56.30;;;;;;5208673;28;20138;-78
2020/12/16 06:01:05;;;;;;;3.55;2.92;;;21.00;56.20;;;;;;5224127;28;20066;-79
2020/12/16 06:03:37;;;;;;;3.80;3.00;;;21.00;56.20;;;;;;5208925;28;20507;-77
2020/12/16 06:06:09;;;;;;;3.33;2.65;;;21.00;56.20;;;;;;5181589;28;20411;-76
2020/12/16 06:08:40;;;;;;;4.40;3.00;;;21.00;56.20;;;;;;5213931;28;20021;-78
2020/12/16 06:11:11;;;;;;;4.55;2.80;;;21.00;56.20;;;;;;5212648;28;20036;-78
2020/12/16 06:13:45;;;;;;;3.10;2.80;;;21.00;56.20;;;;;;5208453;28;20518;-77
2020/12/16 06:16:16;;;;;;;3.53;3.10;;;21.00;56.20;;;;;;5207291;28;20539;-78
2020/12/16 06:18:47;;;;;;;3.63;2.80;;;21.00;56.10;;;;;;5224338;28;20128;-78
2020/12/16 06:21:18;;;;;;;2.97;2.67;;;21.00;56.10;;;;;;5206504;28;20021;-78
2020/12/16 06:23:48;;;;;;;3.42;2.95;;;21.00;56.20;;;;;;5207801;28;20074;-77
2020/12/16 06:26:21;;;;;;;2.92;2.63;;;21.00;56.80;;;;;;5220011;28;20112;-78
2020/12/16 06:28:52;;;;;;;5.00;2.80;;;21.00;56.20;;;;;;5205097;28;20040;-78
2020/12/16 06:31:31;;;;;;;4.53;2.45;;;21.10;56.20;;;;;;5190293;28;20048;-78
2020/12/16 06:34:06;;;;;;;3.78;2.80;;;21.20;56.20;;;;;;5202633;28;20031;-78
2020/12/16 06:36:41;;;;;;;6.88;2.63;;;21.20;56.00;;;;;;5190848;28;20108;-78
2020/12/16 06:39:21;;;;;;;2.63;2.42;;;21.20;56.20;;;;;;5222282;28;20094;-78
2020/12/16 06:41:55;;;;;;;4.60;2.80;;;21.30;56.00;;;;;;5204754;28;20486;-78
2020/12/16 06:44:26;;;;;;;7.47;2.42;;;21.20;56.00;;;;;;5233805;28;20048;-78
2020/12/16 06:46:58;;;;;;;3.90;2.85;;;21.30;56.00;;;;;;5223060;28;20134;-77
2020/12/16 06:49:35;;;;;;;2.75;2.38;;;21.30;56.00;;;;;;5200155;28;20360;-80
2020/12/16 06:52:08;;;;;;;4.28;2.53;;;21.30;56.10;;;;;;5202808;28;20033;-78
2020/12/16 06:54:41;;;;;;;3.42;2.67;;;21.30;56.00;;;;;;5205120;28;20032;-77
2020/12/16 06:57:19;;;;;;;3.35;2.50;;;21.30;56.00;;;;;;5223600;28;20181;-79
2020/12/16 06:59:59;;;;;;;6.07;2.95;;;21.30;55.80;;;;;;5217038;28;20412;-77
2020/12/16 07:02:31;;;;;;;3.08;2.78;;;21.30;55.90;;;;;;5186961;28;20009;-77
2020/12/16 07:05:04;;;;;;;7.80;2.95;;;21.30;56.70;;;;;;5220988;28;20044;-78
2020/12/16 07:07:38;;;;;;;4.78;2.60;;;21.40;56.60;;;;;;5207751;28;20009;-79
2020/12/16 07:10:44;;;;;;;4.43;2.95;;;21.40;56.40;;;;;;5224515;28;20104;-78
2020/12/16 07:13:21;;;;;;;5.82;2.83;;;21.40;56.40;;;;;;5209785;28;20155;-77
2020/12/16 07:15:57;;;;;;;6.43;3.00;;;21.30;56.50;;;;;;5202966;28;20121;-79
2020/12/16 07:18:44;;;;;;;4.28;3.13;;;21.30;56.60;;;;;;5218604;28;20028;-79
2020/12/16 07:21:17;;;;;;;3.85;3.03;;;21.30;56.70;;;;;;5216787;28;20038;-78
2020/12/16 07:23:58;;;;;;;6.72;3.38;;;21.30;56.70;;;;;;5215405;28;20024;-79
2020/12/16 07:26:30;;;;;;;3.80;3.40;;;21.30;56.70;;;;;;5224157;28;20037;-78
2020/12/16 07:29:21;;;;;;;4.00;3.10;;;21.20;56.70;;;;;;5207073;28;20068;-76
2020/12/16 07:32:07;;;;;;;3.90;3.55;;;21.20;56.90;;;;;;5222333;28;20044;-77
2020/12/16 07:34:45;;;;;;;4.93;3.42;;;21.20;56.90;;;;;;5219763;28;20020;-78
2020/12/16 07:37:18;;;;;;;9.70;3.70;;;21.20;56.90;;;;;;5204076;28;20037;-78
2020/12/16 07:39:58;;;;;;;5.03;3.35;;;21.20;57.00;;;;;;5198766;28;20059;-78
2020/12/16 07:42:29;;;;;;;3.50;2.88;;;21.20;57.00;;;;;;5218107;28;20063;-78
2020/12/16 07:45:03;;;;;;;3.00;2.70;;;21.20;56.90;;;;;;5206218;28;20025;-77
2020/12/16 07:47:34;;;;;;;3.38;2.97;;;21.20;56.80;;;;;;5206895;28;20489;-77
2020/12/16 07:50:10;;;;;;;4.53;3.13;;;21.20;56.90;;;;;;5185967;28;20033;-78
2020/12/16 07:52:41;;;;;;;3.90;3.25;;;21.20;57.00;;;;;;5203341;28;20017;-78
2020/12/16 07:55:13;;;;;;;3.55;3.13;;;21.20;57.00;;;;;;5223870;28;20143;-78
2020/12/16 07:57:44;;;;;;;3.55;2.55;;;21.20;57.00;;;;;;5207612;28;20097;-78
2020/12/16 08:00:20;;;;;;;3.45;2.97;;;21.20;56.90;;;;;;5223289;28;20021;-78
2020/12/16 08:02:52;;;;;;;3.20;2.90;;;21.20;56.80;;;;;;5203430;28;20014;-78
2020/12/16 08:05:24;;;;;;;3.63;2.92;;;21.20;56.80;;;;;;5208958;28;20049;-78
2020/12/16 08:08:01;;;;;;;7.63;3.63;;;21.30;57.30;;;;;;5191641;28;20021;-79
2020/12/16 08:10:32;;;;;;;3.42;2.88;;;21.30;57.60;;;;;;5210515;28;20040;-78
2020/12/16 08:13:02;;;;;;;4.60;3.47;;;21.40;56.80;;;;;;5193790;28;20360;-77
2020/12/16 08:15:33;;;;;;;4.45;3.15;;;21.30;56.50;;;;;;5227265;28;20036;-77
2020/12/16 08:18:03;;;;;;;3.47;3.00;;;21.30;56.40;;;;;;5210015;28;20145;-78
2020/12/16 08:20:34;;;;;;;6.32;4.45;;;21.20;57.20;;;;;;5226237;28;20029;-77
2020/12/16 08:23:04;;;;;;;17.98;7.82;;;21.10;55.90;;;;;;5187394;28;20033;-76
2020/12/16 08:25:36;;;;;;;14.02;7.68;;;21.00;57.60;;;;;;5201672;28;20028;-77
2020/12/16 08:28:07;;;;;;;9.88;4.72;;;21.00;59.40;;;;;;5203902;28;20021;-76
2020/12/16 08:30:40;;;;;;;8.10;3.67;;;20.90;60.40;;;;;;5223733;28;20029;-77
2020/12/16 08:33:16;;;;;;;10.20;4.35;;;21.00;59.90;;;;;;5216825;28;20078;-77
2020/12/16 08:35:52;;;;;;;6.55;4.90;;;21.00;59.40;;;;;;5209805;28;20036;-76
2020/12/16 08:38:37;;;;;;;16.33;3.75;;;21.00;59.20;;;;;;5226089;28;20407;-76
2020/12/16 08:41:09;;;;;;;7.40;5.85;;;21.00;59.00;;;;;;5221264;28;20041;-76
2020/12/16 08:43:43;;;;;;;9.07;5.88;;;21.10;58.60;;;;;;5224032;28;20020;-76
2020/12/16 08:46:15;;;;;;;7.15;5.97;;;21.00;58.70;;;;;;5206104;28;20025;-76
2020/12/16 08:49:02;;;;;;;9.82;5.90;;;20.90;58.40;;;;;;5215998;28;20066;-77
2020/12/16 08:51:34;;;;;;;15.93;4.97;;;20.80;57.60;;;;;;5223380;28;20033;-75
2020/12/16 08:54:09;;;;;;;9.70;5.43;;;20.80;59.00;;;;;;5220605;28;20029;-76
2020/12/16 08:56:42;;;;;;;4.78;3.40;;;20.70;58.40;;;;;;5192472;28;20072;-77
2020/12/16 08:59:19;;;;;;;6.15;3.40;;;20.80;58.90;;;;;;5182121;28;20148;-76
2020/12/16 09:01:52;;;;;;;6.07;4.00;;;20.90;58.40;;;;;;5224057;28;20044;-76
2020/12/16 09:04:27;;;;;;;6.75;4.32;;;20.90;58.10;;;;;;5223910;28;20100;-76
2020/12/16 09:07:01;;;;;;;6.55;3.75;;;20.90;57.80;;;;;;5222179;28;20045;-76
2020/12/16 09:09:35;;;;;;;6.10;4.28;;;21.00;57.50;;;;;;5216064;28;20029;-78
2020/12/16 09:12:13;;;;;;;5.88;3.65;;;21.00;57.30;;;;;;5206309;28;20041;-75
2020/12/16 09:14:51;;;;;;;8.88;4.45;;;21.00;57.00;;;;;;5223042;28;20029;-77
2020/12/16 09:17:22;;;;;;;8.07;4.95;;;21.00;56.80;;;;;;5208060;28;20116;-77
2020/12/16 09:19:53;;;;;;;7.70;4.00;;;21.00;56.70;;;;;;5207335;28;20060;-77
2020/12/16 09:22:30;;;;;;;5.25;3.67;;;20.90;56.60;;;;;;5208417;28;20068;-76
2020/12/16 09:25:00;;;;;;;5.38;3.53;;;20.90;56.40;;;;;;5208147;28;20033;-76
2020/12/16 09:27:31;;;;;;;5.40;4.18;;;20.90;56.50;;;;;;5206349;28;20032;-76
2020/12/16 09:30:01;;;;;;;4.88;3.35;;;20.90;56.40;;;;;;5206497;28;20040;-77
2020/12/16 09:32:32;;;;;;;7.60;4.30;;;20.90;56.20;;;;;;5199719;28;20033;-75
2020/12/16 09:35:09;;;;;;;5.70;4.50;;;20.90;56.10;;;;;;5217278;28;20442;-75
2020/12/16 09:37:39;;;;;;;6.38;4.43;;;20.90;55.90;;;;;;5209804;28;20059;-73
2020/12/16 09:40:11;;;;;;;5.00;3.20;;;20.90;55.70;;;;;;5208691;28;20486;-76
2020/12/16 09:42:55;;;;;;;7.28;4.78;;;20.90;55.60;;;;;;5224310;28;20701;-74
2020/12/16 09:45:32;;;;;;;9.00;5.75;;;20.90;55.40;;;;;;5194716;28;20124;-75
2020/12/16 09:48:03;;;;;;;12.50;8.73;;;20.90;55.30;;;;;;5204264;28;20029;-75
2020/12/16 09:50:35;;;;;;;12.50;8.38;;;20.80;54.90;;;;;;5187501;28;20033;-75
2020/12/16 09:53:06;;;;;;;12.77;9.95;;;20.70;55.50;;;;;;5212340;28;20504;-75
2020/12/16 09:55:43;;;;;;;13.30;9.63;;;20.50;55.50;;;;;;5199430;28;20041;-75
2020/12/16 09:58:15;;;;;;;11.60;8.95;;;20.40;54.40;;;;;;5223507;28;20436;-75
2020/12/16 10:00:45;;;;;;;12.30;8.90;;;20.30;55.00;;;;;;5208051;28;20398;-76
2020/12/16 10:03:18;;;;;;;10.80;8.57;;;20.30;55.60;;;;;;5212736;28;20092;-75
2020/12/16 10:05:48;;;;;;;11.20;9.25;;;20.30;55.90;;;;;;5171252;28;20055;-76
2020/12/16 10:08:19;;;;;;;13.75;9.57;;;20.20;53.60;;;;;;5171299;28;20026;-75
2020/12/16 10:10:49;;;;;;;27.95;13.27;;;20.20;56.30;;;;;;5187251;28;20061;-74
2020/12/16 10:13:22;;;;;;;18.17;11.27;;;20.10;58.00;;;;;;5187239;28;20584;-75
2020/12/16 10:15:53;;;;;;;19.15;11.10;;;20.20;60.10;;;;;;5204700;28;20523;-76
2020/12/16 10:18:23;;;;;;;21.20;11.57;;;20.10;59.60;;;;;;5187105;28;20030;-76
2020/12/16 10:20:54;;;;;;;18.15;12.57;;;20.20;59.00;;;;;;5203263;28;20117;-74
2020/12/16 10:23:24;;;;;;;17.20;11.70;;;20.20;59.90;;;;;;5187999;28;20480;-75
2020/12/16 10:25:55;;;;;;;16.35;10.90;;;20.40;64.10;;;;;;5191803;28;20025;-76
2020/12/16 10:28:25;;;;;;;20.60;11.80;;;20.40;62.60;;;;;;5223985;28;20021;-75
2020/12/16 10:30:56;;;;;;;14.52;7.35;;;20.50;62.00;;;;;;5218311;28;20506;-75
2020/12/16 10:33:26;;;;;;;17.05;10.25;;;20.50;61.90;;;;;;5206475;28;20059;-75
2020/12/16 10:35:57;;;;;;;16.05;11.02;;;20.60;61.90;;;;;;5216973;28;20684;-75
2020/12/16 10:38:27;;;;;;;17.23;11.63;;;20.60;61.50;;;;;;5211314;28;20022;-75
2020/12/16 10:40:58;;;;;;;18.75;12.50;;;20.60;60.60;;;;;;5213627;28;20037;-76
2020/12/16 10:43:28;;;;;;;16.23;9.52;;;20.60;60.10;;;;;;5223047;28;20116;-76
2020/12/16 10:45:59;;;;;;;12.82;8.70;;;20.50;60.70;;;;;;5205761;28;20132;-75
2020/12/16 10:48:30;;;;;;;10.85;7.90;;;20.60;60.60;;;;;;5223361;28;20024;-75
2020/12/16 10:51:01;;;;;;;11.40;7.20;;;20.70;60.30;;;;;;5219792;28;20040;-75
2020/12/16 10:53:32;;;;;;;12.27;7.38;;;20.70;60.10;;;;;;5187552;28;20071;-75
2020/12/16 10:56:03;;;;;;;9.40;7.07;;;20.80;59.70;;;;;;5203028;28;20116;-76
2020/12/16 10:58:33;;;;;;;11.85;6.55;;;20.90;59.40;;;;;;5203517;28;20165;-75
2020/12/16 11:01:04;;;;;;;10.35;5.90;;;21.00;59.40;;;;;;5186047;28;20473;-74
2020/12/16 11:03:35;;;;;;;7.55;5.40;;;21.00;59.20;;;;;;5203293;28;20026;-75
2020/12/16 11:06:06;;;;;;;9.13;5.55;;;21.00;59.20;;;;;;5202483;28;20029;-74
2020/12/16 11:08:36;;;;;;;8.60;5.60;;;21.10;58.80;;;;;;5186859;28;20025;-75
2020/12/16 11:11:07;;;;;;;7.70;4.63;;;21.10;58.90;;;;;;5202434;28;20420;-75
2020/12/16 11:13:37;;;;;;;6.80;5.18;;;21.10;58.80;;;;;;5203241;28;20030;-76
2020/12/16 11:16:08;;;;;;;6.38;4.72;;;21.10;58.60;;;;;;5207275;23;20054;-78
2020/12/16 11:18:38;;;;;;;9.68;4.78;;;21.10;58.60;;;;;;5142748;28;20114;-79
2020/12/16 11:21:09;;;;;;;6.38;4.60;;;21.10;58.70;;;;;;5167379;28;20080;-79
2020/12/16 11:23:40;;;;;;;8.40;4.80;;;21.10;58.60;;;;;;5151618;28;20026;-79
2020/12/16 11:26:10;;;;;;;6.65;4.28;;;21.10;58.70;;;;;;5167640;28;20065;-79
2020/12/16 11:28:41;;;;;;;6.53;4.78;;;21.10;58.50;;;;;;5184332;28;20386;-79
2020/12/16 11:31:11;;;;;;;6.07;4.53;;;21.10;58.50;;;;;;5183620;28;20029;-79
2020/12/16 11:33:42;;;;;;;5.88;3.88;;;21.10;58.40;;;;;;5167611;28;20026;-79
2020/12/16 11:36:13;;;;;;;5.45;4.05;;;21.10;58.20;;;;;;5167303;28;20057;-79
2020/12/16 11:38:43;;;;;;;5.22;4.15;;;21.10;58.30;;;;;;5185882;28;20014;-79
2020/12/16 11:41:14;;;;;;;6.55;4.80;;;21.10;58.00;;;;;;5171135;28;20057;-79
2020/12/16 11:43:44;;;;;;;5.72;4.30;;;21.10;57.70;;;;;;5171565;28;20400;-79
2020/12/16 11:46:15;;;;;;;7.35;4.50;;;21.10;57.70;;;;;;5203757;28;20030;-79
2020/12/16 11:48:47;;;;;;;5.00;4.25;;;21.10;57.60;;;;;;5204607;28;20299;-78
2020/12/16 11:51:17;;;;;;;6.95;4.15;;;21.10;57.50;;;;;;5195103;28;20072;-78
2020/12/16 11:53:48;;;;;;;6.90;5.70;;;21.00;57.20;;;;;;5179121;28;20431;-77
2020/12/16 11:56:18;;;;;;;7.78;5.10;;;21.00;56.90;;;;;;5170007;28;20041;-78
2020/12/16 11:58:49;;;;;;;11.25;5.15;;;21.00;57.00;;;;;;5172411;28;20022;-78
2020/12/16 12:01:20;;;;;;;9.88;6.28;;;21.10;57.10;;;;;;5180363;28;20555;-78
2020/12/16 12:03:50;;;;;;;11.95;5.47;;;21.00;57.70;;;;;;5160307;28;20503;-78
2020/12/16 12:06:21;;;;;;;11.48;5.60;;;21.00;57.10;;;;;;5171543;28;20255;-78
2020/12/16 12:08:51;;;;;;;10.32;6.35;;;21.00;57.00;;;;;;5167107;28;20106;-77
2020/12/16 12:11:22;;;;;;;8.82;4.70;;;21.00;57.00;;;;;;5185377;28;20030;-80
2020/12/16 12:13:52;;;;;;;7.43;4.18;;;21.00;57.10;;;;;;5154498;28;20081;-79
2020/12/16 12:16:23;;;;;;;7.85;4.70;;;21.00;56.80;;;;;;5175036;28;20447;-78
2020/12/16 12:18:53;;;;;;;6.80;4.28;;;21.10;56.70;;;;;;5187607;28;20022;-78
2020/12/16 12:21:24;;;;;;;8.13;4.60;;;21.10;56.60;;;;;;5187737;28;20026;-79
2020/12/16 12:23:54;;;;;;;7.30;4.50;;;21.20;56.60;;;;;;5188763;28;20018;-79
2020/12/16 12:26:25;;;;;;;6.05;4.15;;;21.10;56.60;;;;;;5154344;28;20032;-79
2020/12/16 12:28:55;;;;;;;10.75;6.78;;;21.20;56.60;;;;;;5170869;28;20481;-78
2020/12/16 12:31:26;;;;;;;11.40;6.43;;;21.10;56.70;;;;;;5170443;28;20027;-79
2020/12/16 12:33:57;;;;;;;6.13;4.15;;;21.10;56.70;;;;;;5170918;28;20029;-79
2020/12/16 12:36:27;;;;;;;5.65;4.15;;;21.10;56.70;;;;;;5170402;28;20117;-78
2020/12/16 12:38:58;;;;;;;6.85;4.60;;;21.10;56.80;;;;;;5170920;28;20096;-78
2020/12/16 12:41:29;;;;;;;9.30;4.13;;;21.10;56.80;;;;;;5152943;28;20033;-76
2020/12/16 12:43:59;;;;;;;5.20;4.18;;;21.10;56.80;;;;;;5171107;28;20022;-77
2020/12/16 12:46:30;;;;;;;5.85;4.10;;;21.10;56.70;;;;;;5170154;28;20113;-76
2020/12/16 12:49:00;;;;;;;10.93;8.18;;;21.20;56.70;;;;;;5189391;28;20511;-77
2020/12/16 12:51:31;;;;;;;12.93;8.88;;;21.10;53.70;;;;;;5185012;28;20029;-77
2020/12/16 12:54:01;;;;;;;11.63;9.02;;;20.60;53.10;;;;;;5172291;28;20022;-76
2020/12/16 12:56:32;;;;;;;13.10;9.35;;;20.40;53.70;;;;;;5170986;28;20048;-76
2020/12/16 12:59:02;;;;;;;29.13;12.02;;;20.10;54.30;;;;;;5158643;28;20029;-77
2020/12/16 13:01:33;;;;;;;72.90;18.42;;;20.00;58.00;;;;;;5175700;28;20500;-76
2020/12/16 13:04:06;;;;;;;33.65;11.88;;;19.90;63.20;;;;;;5172305;28;20068;-76
2020/12/16 13:06:37;;;;;;;22.15;11.82;;;19.90;62.20;;;;;;5170404;28;20108;-76
2020/12/16 13:09:08;;;;;;;24.80;11.73;;;19.80;60.50;;;;;;5172454;28;20536;-76